sensor_id;sensor_type;location;lat;lon;timestamp;pressure;altitude;pressure_sealevel;temperature;humidity
43281;BME280;62175;49.416;8.690;2023-05-11T02:20:35;100302.89;;;16.66;58.22
43281;BME280;62175;49.416;8.690;2023-05-11T03:34:29;100295.38;;;16.30;58.03
43281;BME280;62175;49.416;8.690;2023-05-11T03:37:00;100293.27;;;15.85;57.23
43281;BME280;62175;49.416;8.690;2023-05-11T04:07:26;100291.03;;;16.49;57.89
43281;BME280;62175;49.416;8.690;2023-05-11T04:10:47;100287.43;;;16.49;56.56
43281;BME280;62175;49.416;8.690;2023-05-11T04:13:49;100286.01;;;16.26;56.18
43281;BME280;62175;49.416;8.690;2023-05-11T07:02:02;100340.28;;;15.80;55.14
43281;BME280;62175;49.416;8.690;2023-05-11T07:04:30;100342.16;;;15.97;55.55
43281;BME280;62175;49.416;8.690;2023-05-11T07:06:58;100341.59;;;16.15;55.41
43281;BME280;62175;49.416;8.690;2023-05-11T08:11:11;100360.17;;;16.15;54.79
43281;BME280;62175;49.416;8.690;2023-05-11T08:13:39;100360.42;;;16.02;54.79
43281;BME280;62175;49.416;8.690;2023-05-11T08:16:06;100357.08;;;16.41;53.77
43281;BME280;62175;49.416;8.690;2023-05-11T08:18:35;100360.15;;;16.26;53.22
43281;BME280;62175;49.416;8.690;2023-05-11T08:44:48;100356.51;;;16.85;55.10
43281;BME280;62175;49.416;8.690;2023-05-11T08:47:18;100356.02;;;16.60;53.77
43281;BME280;62175;49.416;8.690;2023-05-11T08:49:48;100357.75;;;16.67;52.51
43281;BME280;62175;49.416;8.690;2023-05-11T08:52:18;100358.67;;;16.64;52.78
43281;BME280;62175;49.416;8.690;2023-05-11T08:54:53;100356.15;;;16.55;52.19
43281;BME280;62175;49.416;8.690;2023-05-11T08:57:20;100358.42;;;16.68;51.59
43281;BME280;62175;49.416;8.690;2023-05-11T08:59:51;100356.67;;;16.49;52.47
43281;BME280;62175;49.416;8.690;2023-05-11T09:02:21;100357.97;;;16.93;53.59
43281;BME280;62175;49.416;8.690;2023-05-11T09:04:52;100359.02;;;17.04;53.17
43281;BME280;62175;49.416;8.690;2023-05-11T09:07:23;100361.90;;;16.89;52.72
43281;BME280;62175;49.416;8.690;2023-05-11T09:09:54;100358.45;;;16.81;52.48
43281;BME280;62175;49.416;8.690;2023-05-11T09:12:24;100359.22;;;16.96;52.38
43281;BME280;62175;49.416;8.690;2023-05-11T09:14:53;100363.21;;;16.98;52.29
43281;BME280;62175;49.416;8.690;2023-05-11T09:17:24;100363.86;;;17.06;52.58
43281;BME280;62175;49.416;8.690;2023-05-11T09:20:01;100366.22;;;17.13;52.86
43281;BME280;62175;49.416;8.690;2023-05-11T09:22:32;100363.61;;;17.10;53.27
43281;BME280;62175;49.416;8.690;2023-05-11T09:28:00;100363.98;;;16.99;53.14
43281;BME280;62175;49.416;8.690;2023-05-11T11:05:02;100346.14;;;17.22;53.48
43281;BME280;62175;49.416;8.690;2023-05-11T11:07:30;100341.62;;;16.89;52.26
43281;BME280;62175;49.416;8.690;2023-05-11T11:10:00;100342.95;;;16.87;53.30
43281;BME280;62175;49.416;8.690;2023-05-11T11:12:40;100342.90;;;17.38;52.26
43281;BME280;62175;49.416;8.690;2023-05-11T11:41:42;100324.95;;;17.10;54.55
43281;BME280;62175;49.416;8.690;2023-05-11T11:45:59;100325.70;;;17.37;53.99
43281;BME280;62175;49.416;8.690;2023-05-11T11:48:30;100322.63;;;17.02;52.27
43281;BME280;62175;49.416;8.690;2023-05-11T11:51:03;100318.30;;;17.13;51.43
43281;BME280;62175;49.416;8.690;2023-05-11T11:55:46;100314.12;;;18.05;52.42
43281;BME280;62175;49.416;8.690;2023-05-11T11:58:56;100311.72;;;17.48;50.92
43281;BME280;62175;49.416;8.690;2023-05-11T12:01:25;100310.72;;;17.27;50.27
43281;BME280;62175;49.416;8.690;2023-05-11T12:56:54;100276.49;;;17.87;52.40
43281;BME280;62175;49.416;8.690;2023-05-11T12:59:27;100269.24;;;17.45;50.34
43281;BME280;62175;49.416;8.690;2023-05-11T13:02:20;100261.84;;;17.56;50.09
43281;BME280;62175;49.416;8.690;2023-05-11T13:04:58;100263.20;;;17.64;49.80
43281;BME280;62175;49.416;8.690;2023-05-11T13:08:01;100264.15;;;18.07;49.93
43281;BME280;62175;49.416;8.690;2023-05-11T13:10:52;100259.48;;;17.81;51.52
43281;BME280;62175;49.416;8.690;2023-05-11T13:13:36;100259.82;;;17.90;50.30
43281;BME280;62175;49.416;8.690;2023-05-11T13:19:15;100249.59;;;18.54;52.50
43281;BME280;62175;49.416;8.690;2023-05-11T22:02:56;100279.62;;;15.91;63.53
43281;BME280;62175;49.416;8.690;2023-05-11T22:05:24;100282.61;;;16.21;62.32
43281;BME280;62175;49.416;8.690;2023-05-11T22:07:50;100280.50;;;16.81;61.89
43281;BME280;62175;49.416;8.690;2023-05-11T22:10:18;100278.83;;;16.66;61.13
43281;BME280;62175;49.416;8.690;2023-05-11T22:12:46;100283.89;;;16.73;61.59
43281;BME280;62175;49.416;8.690;2023-05-11T22:15:13;100284.47;;;16.77;62.13
43281;BME280;62175;49.416;8.690;2023-05-11T22:17:40;100281.07;;;16.75;62.12
43281;BME280;62175;49.416;8.690;2023-05-11T22:20:08;100276.12;;;16.75;61.85
43281;BME280;62175;49.416;8.690;2023-05-11T22:22:35;100276.29;;;16.85;62.96
43281;BME280;62175;49.416;8.690;2023-05-11T22:25:03;100277.67;;;16.81;62.57
43281;BME280;62175;49.416;8.690;2023-05-11T22:27:30;100277.85;;;16.47;62.19
43281;BME280;62175;49.416;8.690;2023-05-11T22:29:58;100272.98;;;16.59;63.69
43281;BME280;62175;49.416;8.690;2023-05-11T22:32:24;100272.51;;;16.35;62.91
43281;BME280;62175;49.416;8.690;2023-05-11T22:35:00;100271.82;;;16.57;63.32
43281;BME280;62175;49.416;8.690;2023-05-11T22:37:27;100271.64;;;16.56;62.84
43281;BME280;62175;49.416;8.690;2023-05-11T22:39:54;100277.56;;;16.89;62.55
43281;BME280;62175;49.416;8.690;2023-05-11T22:42:22;100275.39;;;16.60;62.36
43281;BME280;62175;49.416;8.690;2023-05-11T22:44:49;100277.77;;;16.74;62.47
43281;BME280;62175;49.416;8.690;2023-05-11T22:47:16;100277.18;;;16.49;63.44
43281;BME280;62175;49.416;8.690;2023-05-11T22:49:43;100279.67;;;16.77;62.66
43281;BME280;62175;49.416;8.690;2023-05-11T22:52:10;100277.88;;;16.58;63.74
43281;BME280;62175;49.416;8.690;2023-05-11T22:54:38;100282.41;;;16.27;63.00
43281;BME280;62175;49.416;8.690;2023-05-11T22:57:06;100278.15;;;16.30;63.06
43281;BME280;62175;49.416;8.690;2023-05-11T22:59:33;100277.97;;;16.54;62.97
43281;BME280;62175;49.416;8.690;2023-05-11T23:02:01;100279.65;;;16.24;63.54
43281;BME280;62175;49.416;8.690;2023-05-11T23:04:29;100275.71;;;16.58;63.25
43281;BME280;62175;49.416;8.690;2023-05-11T23:06:57;100275.11;;;16.50;63.02
43281;BME280;62175;49.416;8.690;2023-05-11T23:09:23;100278.90;;;16.41;63.35
43281;BME280;62175;49.416;8.690;2023-05-11T23:11:50;100274.32;;;16.55;63.06
43281;BME280;62175;49.416;8.690;2023-05-11T23:14:17;100274.87;;;16.57;63.21
43281;BME280;62175;49.416;8.690;2023-05-11T23:16:45;100273.41;;;16.63;63.10
43281;BME280;62175;49.416;8.690;2023-05-11T23:19:12;100272.84;;;16.54;62.77
43281;BME280;62175;49.416;8.690;2023-05-11T23:21:39;100274.86;;;16.35;63.00
43281;BME280;62175;49.416;8.690;2023-05-11T23:24:06;100273.86;;;16.28;62.60
43281;BME280;62175;49.416;8.690;2023-05-11T23:26:34;100272.17;;;16.59;63.13
43281;BME280;62175;49.416;8.690;2023-05-11T23:29:01;100272.22;;;16.32;63.27
43281;BME280;62175;49.416;8.690;2023-05-11T23:31:29;100274.03;;;16.24;63.21
43281;BME280;62175;49.416;8.690;2023-05-11T23:33:56;100271.86;;;16.44;63.35
43281;BME280;62175;49.416;8.690;2023-05-11T23:36:23;100273.57;;;16.37;64.34
43281;BME280;62175;49.416;8.690;2023-05-11T23:38:51;100274.39;;;16.30;63.54
43281;BME280;62175;49.416;8.690;2023-05-11T23:41:18;100270.26;;;16.61;63.44
43281;BME280;62175;49.416;8.690;2023-05-11T23:43:45;100270.55;;;16.44;63.29
43281;BME280;62175;49.416;8.690;2023-05-11T23:46:12;100267.83;;;16.54;62.62
43281;BME280;62175;49.416;8.690;2023-05-11T23:48:39;100267.58;;;16.50;63.08
43281;BME280;62175;49.416;8.690;2023-05-11T23:51:06;100266.18;;;16.43;62.59
43281;BME280;62175;49.416;8.690;2023-05-11T23:53:34;100264.55;;;16.60;62.69
43281;BME280;62175;49.416;8.690;2023-05-11T23:56:01;100265.05;;;16.48;63.56
43281;BME280;62175;49.416;8.690;2023-05-11T23:58:28;100260.98;;;16.50;62.70
